Time;durP1;ratioP1;P1;durP2;ratioP2;P2;SDS_P1;SDS_P2;PMS_P1;PMS_P2;Temp;Humidity;BMP_temperature;BMP_pressure;BME280_temperature;BME280_humidity;BME280_pressure;Samples;Min_cycle;Max_cycle;Signal;HPM_P1;HPM_P2
2023/11/14 00:00:49;;;;;;;28.4;18.1;;;;;;;7.52;86.99;;;;;
2023/11/14 00:11:49;;;;;;;6.7;3.1;;;;;;;7.77;87.9;;;;;
2023/11/14 00:21:50;;;;;;;6.7;3.1;;;;;;;7.98;88.07;;;;;
2023/11/14 00:31:49;;;;;;;6.7;3.1;;;;;;;8.21;88.28;;;;;
2023/11/14 00:42:49;;;;;;;9.3;4.5;;;;;;;8.53;90.21;;;;;
2023/11/14 00:53:51;;;;;;;9.3;4.5;;;;;;;8.94;89.47;;;;;
2023/11/14 01:03:49;;;;;;;9.3;4.5;;;;;;;9.22;88.43;;;;;
2023/11/14 01:13:49;;;;;;;5.8;2.6;;;;;;;9.44;88.17;;;;;
2023/11/14 01:23:49;;;;;;;5.8;2.6;;;;;;;9.61;88.03;;;;;
2023/11/14 01:34:49;;;;;;;5.8;2.6;;;;;;;9.07;86.74;;;;;
2023/11/14 01:44:49;;;;;;;7.6;4.4;;;;;;;8.44;87.24;;;;;
2023/11/14 01:54:49;;;;;;;7.6;4.4;;;;;;;8.16;88.84;;;;;
2023/11/14 02:04:49;;;;;;;7.6;4.4;;;;;;;8.14;90.39;;;;;
2023/11/14 02:15:49;;;;;;;11.2;7.1;;;;;;;8.44;90.66;;;;;
2023/11/14 02:26:49;;;;;;;11.2;7.1;;;;;;;8.46;91.77;;;;;
2023/11/14 02:37:49;;;;;;;6.9;3.9;;;;;;;8.51;91.76;;;;;
2023/11/14 02:48:49;;;;;;;6.9;3.9;;;;;;;8.77;92.24;;;;;
2023/11/14 02:59:49;;;;;;;6.9;3.9;;;;;;;8.89;92.29;;;;;
2023/11/14 03:10:49;;;;;;;3.6;1.8;;;;;;;8.97;90.78;;;;;
2023/11/14 03:21:49;;;;;;;3.6;1.8;;;;;;;8.98;89.4;;;;;
2023/11/14 03:31:49;;;;;;;3.6;1.8;;;;;;;8.81;88.63;;;;;
2023/11/14 03:41:49;;;;;;;1;0.5;;;;;;;8.74;89.42;;;;;
2023/11/14 03:51:49;;;;;;;1;0.5;;;;;;;8.86;89.64;;;;;
2023/11/14 04:01:50;;;;;;;1;0.5;;;;;;;8.87;89.44;;;;;
2023/11/14 04:11:50;;;;;;;1.4;0.7;;;;;;;8.9;88.85;;;;;
2023/11/14 04:22:50;;;;;;;1.4;0.7;;;;;;;8.75;88.2;;;;;
2023/11/14 04:32:50;;;;;;;1.4;0.7;;;;;;;8.65;87.89;;;;;
2023/11/14 04:43:50;;;;;;;1;0.5;;;;;;;8.48;88.86;;;;;
2023/11/14 04:53:51;;;;;;;1;0.5;;;;;;;8.68;89.41;;;;;
2023/11/14 05:03:50;;;;;;;1;0.5;;;;;;;8.94;89.25;;;;;
2023/11/14 05:14:50;;;;;;;1.1;0.6;;;;;;;8.92;89.24;;;;;
2023/11/14 05:25:51;;;;;;;1.1;0.6;;;;;;;9.06;88.32;;;;;
2023/11/14 05:36:50;;;;;;;1.5;0.7;;;;;;;9.08;87.85;;;;;
2023/11/14 05:46:50;;;;;;;1.5;0.7;;;;;;;9.2;87.34;;;;;
2023/11/14 05:56:50;;;;;;;1.5;0.7;;;;;;;9.36;86.39;;;;;
2023/11/14 06:07:50;;;;;;;3.1;0.8;;;;;;;9.44;86.21;;;;;
2023/11/14 06:18:50;;;;;;;3.1;0.8;;;;;;;9.49;86.67;;;;;
2023/11/14 06:28:50;;;;;;;3.1;0.8;;;;;;;9.58;86.88;;;;;
2023/11/14 06:38:50;;;;;;;3;1.2;;;;;;;9.73;86.79;;;;;
2023/11/14 06:49:50;;;;;;;3;1.2;;;;;;;9.97;86.71;;;;;
2023/11/14 06:59:50;;;;;;;3;1.2;;;;;;;10.12;85.79;;;;;
2023/11/14 07:09:50;;;;;;;;;;;;;;;;;;;;;
2023/11/14 07:20:50;;;;;;;;;;;;;;;;;;;;;
2023/11/14 07:30:51;;;;;;;;;;;;;;;;;;;;;
2023/11/14 07:41:51;;;;;;;;;;;;;;;;;;;;;
2023/11/14 07:51:50;;;;;;;;;;;;;;;;;;;;;
2023/11/14 08:02:50;;;;;;;;;;;;;;;;;;;;;
2023/11/14 08:12:50;;;;;;;;;;;;;;;;;;;;;
2023/11/14 08:23:50;;;;;;;;;;;;;;;;;;;;;
2023/11/14 08:33:51;;;;;;;;;;;;;;;;;;;;;
2023/11/14 08:43:51;;;;;;;;;;;;;;;;;;;;;
2023/11/14 08:54:50;;;;;;;;;;;;;;;;;;;;;
2023/11/14 09:04:50;;;;;;;;;;;;;;;;;;;;;
2023/11/14 09:15:50;;;;;;;;;;;;;;;;;;;;;
2023/11/14 09:26:50;;;;;;;;;;;;;;;;;;;;;
2023/11/14 09:37:50;;;;;;;6.2;2.8;;;;;;;12.22;68.77;;;;;
2023/11/14 09:48:50;;;;;;;6.2;2.8;;;;;;;12.42;66.04;;;;;
2023/11/14 09:59:50;;;;;;;6.2;2.8;;;;;;;12.73;66.03;;;;;
2023/11/14 10:09:50;;;;;;;4.8;2.2;;;;;;;12.45;65.17;;;;;
2023/11/14 10:20:50;;;;;;;4.8;2.2;;;;;;;12.43;64.19;;;;;
2023/11/14 10:30:55;;;;;;;4.8;2.2;;;;;;;12.73;64.22;;;;;
2023/11/14 10:41:50;;;;;;;4.9;2.1;;;;;;;12.64;63.47;;;;;
2023/11/14 10:51:50;;;;;;;4.9;2.1;;;;;;;12.3;65.18;;;;;
2023/11/14 11:02:50;;;;;;;4.9;2.1;;;;;;;12.37;65.15;;;;;
2023/11/14 11:12:51;;;;;;;4.9;2.1;;;;;;;12.63;63.67;;;;;
2023/11/14 11:22:50;;;;;;;;;;;;;;;;;;;;;
2023/11/14 11:32:55;;;;;;;;;;;;;;;;;;;;;
2023/11/14 11:43:50;;;;;;;6;2.1;;;;;;;13.07;61.47;;;;;
2023/11/14 11:54:50;;;;;;;6;2.1;;;;;;;12.67;62.12;;;;;
2023/11/14 12:04:52;;;;;;;6;2.1;;;;;;;12.88;61.1;;;;;
2023/11/14 12:14:50;;;;;;;5.7;2.2;;;;;;;12.99;59.97;;;;;
2023/11/14 12:25:50;;;;;;;5.7;2.2;;;;;;;12.82;61.01;;;;;
2023/11/14 12:36:50;;;;;;;5.4;2.8;;;;;;;12.66;61.62;;;;;
2023/11/14 12:46:52;;;;;;;5.4;2.8;;;;;;;12.65;61.8;;;;;
2023/11/14 12:56:50;;;;;;;5.4;2.8;;;;;;;12.38;62.12;;;;;
2023/11/14 13:06:50;;;;;;;8.6;2.8;;;;;;;12.22;62.1;;;;;
2023/11/14 13:16:50;;;;;;;8.6;2.8;;;;;;;12.01;63.24;;;;;
2023/11/14 13:27:50;;;;;;;8.6;2.8;;;;;;;12.05;63.16;;;;;
2023/11/14 13:38:50;;;;;;;7.8;2.6;;;;;;;11.93;63.43;;;;;
2023/11/14 13:48:50;;;;;;;7.8;2.6;;;;;;;11.85;63.96;;;;;
2023/11/14 13:58:50;;;;;;;7.8;2.6;;;;;;;11.72;64.74;;;;;
2023/11/14 14:09:51;;;;;;;5.9;2.2;;;;;;;11.66;64.41;;;;;
2023/11/14 14:20:50;;;;;;;5.9;2.2;;;;;;;11.62;64.37;;;;;
2023/11/14 14:30:50;;;;;;;5.9;2.2;;;;;;;11.51;64.93;;;;;
2023/11/14 14:40:50;;;;;;;8.5;2.2;;;;;;;11.46;64.49;;;;;
2023/11/14 14:51:50;;;;;;;8.5;2.2;;;;;;;11.26;65.31;;;;;
2023/11/14 15:01:53;;;;;;;8.5;2.2;;;;;;;11.3;65.24;;;;;
2023/11/14 15:12:50;;;;;;;6.2;2.1;;;;;;;11.25;65.04;;;;;
2023/11/14 15:22:51;;;;;;;6.2;2.1;;;;;;;11.24;64.63;;;;;
2023/11/14 15:33:51;;;;;;;6.2;2.1;;;;;;;11.16;64.94;;;;;
2023/11/14 15:43:50;;;;;;;6.2;3.1;;;;;;;11.19;64.79;;;;;
2023/11/14 15:53:52;;;;;;;6.2;3.1;;;;;;;11.26;64.72;;;;;
2023/11/14 16:04:50;;;;;;;6.2;3.1;;;;;;;11.3;64.98;;;;;
2023/11/14 16:14:50;;;;;;;10;3;;;;;;;11.27;65.43;;;;;
2023/11/14 16:25:50;;;;;;;10;3;;;;;;;11.28;66.22;;;;;
2023/11/14 16:36:50;;;;;;;9.1;3.6;;;;;;;11.26;66.18;;;;;
2023/11/14 16:46:51;;;;;;;9.1;3.6;;;;;;;11.25;66.28;;;;;
2023/11/14 16:57:50;;;;;;;9.1;3.6;;;;;;;11.25;66.3;;;;;
2023/11/14 17:07:51;;;;;;;9.3;3.9;;;;;;;11.27;66.42;;;;;
2023/11/14 17:17:50;;;;;;;9.3;3.9;;;;;;;11.25;66.78;;;;;
2023/11/14 17:28:50;;;;;;;9.3;3.9;;;;;;;11.17;67.36;;;;;
2023/11/14 17:39:50;;;;;;;10.3;4.4;;;;;;;11.08;67.94;;;;;
2023/11/14 17:49:50;;;;;;;10.3;4.4;;;;;;;11.12;67.47;;;;;
2023/11/14 17:59:50;;;;;;;10.3;4.4;;;;;;;11.17;67.45;;;;;
2023/11/14 18:10:50;;;;;;;10.6;4.2;;;;;;;11.17;67.62;;;;;
2023/11/14 18:21:50;;;;;;;10.6;4.2;;;;;;;11.08;68.27;;;;;
2023/11/14 18:31:50;;;;;;;10.6;4.2;;;;;;;11.06;68.57;;;;;
2023/11/14 18:41:50;;;;;;;8;3.3;;;;;;;11.03;68.62;;;;;
2023/11/14 18:51:50;;;;;;;8;3.3;;;;;;;11.11;68.44;;;;;
2023/11/14 19:02:52;;;;;;;8;3.3;;;;;;;11.07;68.28;;;;;
2023/11/14 19:13:50;;;;;;;9.3;4.2;;;;;;;10.99;69.31;;;;;
2023/11/14 19:23:50;;;;;;;9.3;4.2;;;;;;;10.99;68.62;;;;;
2023/11/14 19:33:50;;;;;;;9.3;4.2;;;;;;;11.03;68.23;;;;;
2023/11/14 19:43:50;;;;;;;9.3;4.1;;;;;;;11.06;68.44;;;;;
2023/11/14 19:54:50;;;;;;;9.3;4.1;;;;;;;10.98;68.22;;;;;
2023/11/14 20:04:50;;;;;;;10.3;3.9;;;;;;;10.82;69.03;;;;;
2023/11/14 20:15:50;;;;;;;10.3;3.9;;;;;;;10.62;69.75;;;;;
2023/11/14 20:25:51;;;;;;;10.3;3.9;;;;;;;10.45;70.52;;;;;
2023/11/14 20:35:50;;;;;;;6.2;4;;;;;;;10.49;70.49;;;;;
2023/11/14 20:46:50;;;;;;;6.2;4;;;;;;;10.47;70.93;;;;;
2023/11/14 20:56:50;;;;;;;6.2;4;;;;;;;10.43;71.11;;;;;
2023/11/14 21:06:51;;;;;;;9.6;3.1;;;;;;;10.35;71.2;;;;;
2023/11/14 21:17:50;;;;;;;9.6;3.1;;;;;;;10.36;71.35;;;;;
2023/11/14 21:28:50;;;;;;;9.6;3.1;;;;;;;10.33;71.27;;;;;
2023/11/14 21:38:50;;;;;;;6;3;;;;;;;10.32;71.27;;;;;
2023/11/14 21:48:50;;;;;;;6;3;;;;;;;10.37;71.21;;;;;
2023/11/14 21:58:52;;;;;;;6;3;;;;;;;10.31;71.61;;;;;
2023/11/14 22:09:50;;;;;;;10;2.4;;;;;;;10.19;71.97;;;;;
2023/11/14 22:19:50;;;;;;;10;2.4;;;;;;;10.1;72.58;;;;;
2023/11/14 22:30:51;;;;;;;10;2.4;;;;;;;10.08;72.82;;;;;
2023/11/14 22:41:50;;;;;;;4.6;2.5;;;;;;;9.93;73.48;;;;;
2023/11/14 22:52:50;;;;;;;4.6;2.5;;;;;;;10;73.8;;;;;
2023/11/14 23:03:50;;;;;;;4.6;2.5;;;;;;;10.09;73.82;;;;;
2023/11/14 23:13:51;;;;;;;5.7;2.7;;;;;;;10.24;74.03;;;;;
2023/11/14 23:24:50;;;;;;;5.7;2.7;;;;;;;10.46;73.76;;;;;
2023/11/14 23:34:50;;;;;;;8.1;3.5;;;;;;;10.59;73.63;;;;;
2023/11/14 23:44:50;;;;;;;8.1;3.5;;;;;;;10.62;74.35;;;;;
2023/11/14 23:54:50;;;;;;;8.1;3.5;;;;;;;10.57;74.86;;;;;
